CW0453 Weather Reports


Display with metric or nautical units.
time (UTC)temp
F
wind
direction
speed
MPH
gust
MPH
rain 1hr
in
rain 24hr
in
rain mn
in
humidity
%
barometer
mb
20180620212515 75 316 11.0 20.0 0.00 1.50 1.40 78 1008.7
20180620212018 75 311 12.0 20.0 0.00 1.50 1.40 78 1008.7
20180620211518 75 322 11.0 18.0 0.00 1.50 1.40 79 1008.8
20180620211022 75 304 12.0 18.0 0.00 1.50 1.40 80 1008.9
20180620210526 73 312 8.0 15.0 0.00 1.50 1.40 81 1009.0
20180620210030 74 301 7.0 15.0 0.00 1.50 1.40 83 1009.0
20180620205512 74 319 8.0 14.0 0.00 1.50 1.40 82 1009.2
20180620205014 74 313 8.0 19.0 0.00 1.50 1.40 81 1009.1
20180620204516 73 290 10.0 18.0 0.00 1.50 1.40 82 1009.1
20180620204018 73 318 12.0 18.0 0.00 1.50 1.40 81 1009.1
20180620203521 74 279 8.0 14.0 0.00 1.50 1.40 85 1009.2
20180620203022 73 276 8.0 16.0 0.00 1.50 1.40 84 1009.3
20180620202524 73 306 9.0 16.0 0.00 1.50 1.40 84 1009.3
20180620202026 72 281 9.0 15.0 0.00 1.50 1.40 86 1009.2
20180620201526 72 274 8.0 14.0 0.00 1.50 1.40 84 1009.2
20180620201028 73 321 5.0 15.0 0.00 1.50 1.40 85 1009.2
20180620200527 72 307 10.0 16.0 0.00 1.50 1.40 84 1009.2
20180620200026 72 323 10.0 16.0 0.00 1.50 1.40 85 1009.4
20180620195527 72 296 6.0 17.0 0.00 1.50 1.40 86 1009.5
20180620195029 72 257 11.0 17.0 0.00 1.50 1.40 86 1009.5
20180620194531 72 291 8.0 15.0 0.00 1.50 1.40 85 1009.5
20180620194033 72 360 10.0 17.0 0.00 1.50 1.40 86 1009.5
20180620193516 73 282 8.0 16.0 0.00 1.50 1.40 85 1009.6
20180620193019 72 308 8.0 16.0 0.00 1.50 1.40 87 1009.5
20180620192520 72 297 9.0 13.0 0.00 1.50 1.40 86 1009.6
20180620192024 73 311 8.0 14.0 0.00 1.50 1.40 87 1009.5
20180620191528 72 311 6.0 12.0 0.00 1.50 1.40 89 1009.5
20180620191031 72 294 7.0 13.0 0.00 1.50 1.40 89 1009.6
20180620190532 71 311 8.0 13.0 0.00 1.50 1.40 88 1009.7
20180620190032 71 312 5.0 10.0 0.00 1.50 1.40 90 1009.7
20180620185514 71 297 5.0 10.0 0.00 1.50 1.40 89 1009.6
20180620185017 71 355 6.0 12.0 0.00 1.50 1.40 88 1009.5
20180620184519 72 304 6.0 12.0 0.00 1.50 1.40 89 1009.6
20180620184022 72 308 6.0 11.0 0.00 1.50 1.40 90 1009.8
20180620183523 71 304 6.0 9.0 0.00 1.50 1.40 90 1009.9
20180620183023 70 309 4.0 11.0 0.00 1.50 1.40 93 1009.9
20180620182524 69 284 6.0 12.0 0.00 1.50 1.40 92 1010.0
20180620182026 70 300 6.0 14.0 0.00 1.50 1.40 93 1010.0
20180620181528 70 299 8.0 14.0 0.00 1.50 1.40 92 1010.1
20180620181030 70 290 8.0 10.0 0.00 1.50 1.40 92 1010.1
20180620180512 69 317 5.0 10.0 0.00 1.50 1.40 93 1010.1
20180620180016 69 321 6.0 11.0 0.00 1.50 1.40 93 1010.1
20180620175517 69 305 8.0 11.0 0.00 1.50 1.40 93 1010.1
20180620175015 69 279 6.0 11.0 0.00 1.50 1.40 94 1010.2
20180620174520 69 302 6.0 12.0 0.00 1.50 1.40 93 1010.3
20180620174022 68 278 6.0 13.0 0.00 1.50 1.40 94 1010.4
20180620173524 68 297 7.0 11.0 0.01 1.50 1.40 93 1010.3
20180620173024 68 310 6.0 15.0 0.01 1.50 1.40 94 1010.3
20180620172527 68 306 6.0 15.0 0.01 1.50 1.40 94 1010.4
20180620172029 68 306 7.0 14.0 0.01 1.50 1.40 94 1010.3
20180620171531 68 306 7.0 15.0 0.02 1.50 1.40 93 1010.3
20180620171014 68 293 6.0 12.0 0.02 1.50 1.40 93 1010.4
20180620170515 67 321 7.0 12.0 0.04 1.50 1.40 93 1010.4
20180620170016 67 330 7.0 12.0 0.06 1.50 1.40 94 1010.4
20180620165520 67 332 8.0 14.0 0.09 1.50 1.40 93 1010.4
20180620165023 67 345 8.0 15.0 0.13 1.50 1.40 94 1010.4
20180620164523 67 298 8.0 15.0 0.16 1.50 1.40 94 1010.5
20180620164025 67 330 5.0 14.0 0.19 1.50 1.40 95 1010.5
20180620163529 67 328 10.0 14.0 0.22 1.49 1.39 95 1010.5
20180620163012 66 309 9.0 15.0 0.25 1.49 1.39 95 1010.6
20180620162515 66 330 9.0 19.0 0.28 1.49 1.39 96 1010.6
20180620162014 66 309 12.0 19.0 0.31 1.49 1.39 95 1010.7
20180620161518 66 289 10.0 20.0 0.36 1.48 1.38 95 1010.8
20180620161022 66 321 12.0 20.0 0.44 1.48 1.38 95 1010.7
20180620160526 67 305 10.0 20.0 0.48 1.46 1.36 96 1010.7
20180620160030 67 327 8.0 16.0 0.50 1.43 1.33 96 1010.8
20180620155513 67 327 10.0 16.0 0.58 1.40 1.30 96 1010.8
20180620155017 67 306 10.0 16.0 0.64 1.37 1.27 96 1010.7
20180620154517 67 322 8.0 15.0 0.65 1.33 1.23 97 1010.8
20180620154018 67 300 7.0 12.0 0.65 1.30 1.20 97 1010.7
20180620153520 67 248 5.0 14.0 0.62 1.27 1.17 97 1010.7
20180620153024 67 246 4.0 13.0 0.59 1.24 1.14 97 1010.8
20180620152527 67 263 4.0 11.0 0.56 1.20 1.10 97 1010.8
20180620152029 67 256 6.0 11.0 0.54 1.18 1.08 97 1010.8
20180620151531 67 282 7.0 14.0 0.48 1.12 1.02 96 1010.8
20180620151030 67 265 8.0 14.0 0.41 1.04 0.94 96 1010.8
20180620150532 67 261 6.0 15.0 0.35 0.98 0.88 96 1010.9
20180620150013 67 258 8.0 16.0 0.29 0.92 0.82 95 1010.9
20180620145517 67 291 10.0 16.0 0.18 0.82 0.71 95 1011.0
20180620145019 68 250 4.0 9.0 0.09 0.73 0.62 95 1011.1
20180620144521 69 240 2.0 6.0 0.04 0.68 0.57 96 1011.0
20180620144020 69 215 3.0 6.0 0.02 0.66 0.55 96 1011.0
20180620143521 69 235 3.0 6.0 0.02 0.66 0.55 96 1010.9
20180620143024 69 219 4.0 6.0 0.02 0.66 0.55 96 1010.8
20180620142526 69 209 3.0 5.0 0.01 0.65 0.54 96 1010.8
20180620142027 69 188 1.0 3.0 0.01 0.65 0.54 95 1010.8
20180620141531 69 188 1.0 3.0 0.01 0.65 0.54 96 1010.7
20180620141015 69 188 1.0 5.0 0.00 0.64 0.53 95 1010.7
20180620140516 69 180 2.0 5.0 0.00 0.64 0.53 95 1010.6
20180620140019 69 229 2.0 4.0 0.00 0.64 0.53 95 1010.4
20180620135521 69 267 1.0 5.0 0.00 0.65 0.53 95 1010.5
20180620135025 69 267 1.0 5.0 0.00 0.65 0.53 95 1010.4
20180620134528 69 274 2.0 5.0 0.00 0.65 0.53 95 1010.5
20180620134029 69 296 3.0 5.0 0.00 0.65 0.53 95 1010.2
20180620133513 69 302 3.0 4.0 0.00 0.65 0.53 95 1010.1
20180620133014 69 360 1.0 5.0 0.00 0.65 0.53 95 1010.1
20180620132514 69 345 2.0 5.0 0.00 0.65 0.53 95 1010.0
20180620132018 69 346 3.0 5.0 0.00 0.65 0.53 95 1010.0
20180620131520 69 18 1.0 8.0 0.00 0.65 0.53 95 1010.0
20180620131023 69 28 3.0 8.0 0.00 0.65 0.53 95 1010.0
20180620130525 69 5 3.0 9.0 0.00 0.65 0.53 96 1009.9
20180620130025 69 9 5.0 9.0 0.00 0.65 0.53 96 1009.9
20180620125525 69 360 4.0 8.0 0.00 0.69 0.53 96 1009.8
20180620125025 69 335 5.0 8.0 0.00 0.69 0.53 95 1009.8
20180620124526 69 336 4.0 6.0 0.00 0.69 0.53 96 1009.8
20180620124027 69 351 2.0 4.0 0.00 0.69 0.53 96 1010.0
20180620123526 68 23 2.0 4.0 0.01 0.69 0.53 97 1010.0
20180620123028 68 40 1.0 4.0 0.01 0.69 0.53 97 1010.0
20180620122530 68 62 2.0 7.0 0.01 0.69 0.53 97 1010.1
20180620122014 68 59 2.0 7.0 0.01 0.69 0.53 97 1010.0
20180620121517 68 44 5.0 10.0 0.02 0.69 0.53 97 1009.7
20180620121019 68 40 4.0 10.0 0.03 0.69 0.53 97 1009.7
20180620120522 68 48 5.0 8.0 0.06 0.69 0.53 97 1009.6
20180620120025 68 16 2.0 7.0 0.10 0.69 0.53 97 1009.9
20180620115513 68 53 3.0 11.0 0.11 0.79 0.53 97 1009.9
20180620115018 68 43 7.0 11.0 0.14 0.79 0.53 97 1009.9
20180620114519 68 44 6.0 11.0 0.16 0.79 0.53 97 1010.0
20180620114021 68 36 1.0 9.0 0.18 0.79 0.53 97 1010.3
20180620113524 68 36 4.0 9.0 0.19 0.78 0.52 97 1010.2
20180620113028 68 24 5.0 9.0 0.21 0.78 0.52 97 1010.4
20180620112513 68 58 3.0 5.0 0.22 0.78 0.52 97 1010.7
20180620112017 68 55 3.0 4.0 0.23 0.78 0.52 97 1010.9
20180620111520 68 153 2.0 3.0 0.24 0.77 0.51 97 1011.4
20180620111023 68 360 1.0 7.0 0.23 0.75 0.49 97 1011.4
20180620110524 68 59 2.0 10.0 0.21 0.72 0.46 97 1011.6
20180620110027 68 221 7.0 10.0 0.19 0.69 0.43 97 1012.5
20180620105530 68 198 4.0 6.0 0.17 0.67 0.41 97 1012.0
20180620105030 68 333 0.0 2.0 0.16 0.65 0.39 97 1011.6
20180620104513 68 331 1.0 2.0 0.14 0.62 0.36 97 1011.5
20180620104013 68 332 0.0 2.0 0.14 0.61 0.35 97 1011.4
20180620103516 68 327 0.0 3.0 0.13 0.59 0.33 97 1011.6
20180620103017 68 327 1.0 3.0 0.12 0.57 0.31 97 1011.5
20180620102519 68 327 0.0 4.0 0.13 0.56 0.30 97 1011.3
20180620102019 68 327 2.0 4.0 0.12 0.55 0.29 97 1011.2
20180620101520 68 315 2.0 2.0 0.11 0.53 0.27 97 1011.3
20180620101021 68 315 0.0 1.0 0.11 0.51 0.25 97 1011.7
20180620100524 68 315 0.0 2.0 0.12 0.51 0.25 97 1011.6
20180620100027 68 315 0.0 4.0 0.12 0.50 0.24 97 1011.3
20180620095528 68 315 2.0 4.0 0.13 0.50 0.24 97 1011.1
20180620095030 68 315 2.0 5.0 0.13 0.49 0.23 97 1011.1
20180620094532 68 315 3.0 5.0 0.13 0.48 0.22 97 1011.0
20180620094014 68 342 0.0 2.0 0.13 0.47 0.21 96 1011.2
20180620093514 68 342 1.0 2.0 0.12 0.46 0.20 96 1011.3
20180620093015 68 342 0.0 4.0 0.12 0.45 0.19 96 1011.3
20180620092515 68 342 2.0 4.0 0.10 0.43 0.17 96 1011.1
20180620092016 68 217 1.0 2.0 0.10 0.43 0.17 96 1011.3
20180620091519 68 217 0.0 2.0 0.08 0.41 0.15 96 1011.6
20180620091022 68 217 0.0 4.0 0.07 0.40 0.14 96 1011.7
20180620090524 68 217 1.0 4.0 0.06 0.39 0.13 96 1011.9
20180620090026 68 217 0.0 4.0 0.05 0.38 0.12 96 1011.7
20180620085527 68 217 1.0 4.0 0.03 0.37 0.10 96 1011.7
20180620085028 68 217 3.0 5.0 0.03 0.37 0.10 96 1012.0
20180620084529 68 217 3.0 9.0 0.02 0.36 0.09 96 1012.1
20180620084030 68 234 6.0 9.0 0.01 0.35 0.08 96 1011.9
20180620083532 68 213 4.0 10.0 0.01 0.35 0.08 96 1011.6
20180620083015 68 300 5.0 10.0 0.00 0.34 0.07 96 1011.1
20180620082516 68 277 5.0 8.0 0.00 0.34 0.07 96 1011.1
20180620082018 68 270 3.0 7.0 0.00 0.34 0.07 96 1011.1
20180620081518 68 278 1.0 5.0 0.00 0.34 0.07 96 1010.9
20180620081019 68 278 2.0 10.0 0.00 0.34 0.07 95 1011.0
20180620080519 68 313 2.0 11.0 0.01 0.34 0.07 95 1011.0
20180620080021 68 296 7.0 13.0 0.01 0.34 0.07 95 1010.7
20180620075523 68 300 7.0 13.0 0.01 0.34 0.07 95 1010.8
20180620075025 67 315 8.0 12.0 0.02 0.34 0.07 95 1010.9
20180620074527 67 297 8.0 12.0 0.03 0.34 0.07 95 1010.9
20180620074029 67 314 8.0 12.0 0.04 0.34 0.07 95 1011.0
20180620073530 67 338 8.0 11.0 0.04 0.34 0.07 94 1011.0
20180620073028 67 19 7.0 14.0 0.05 0.34 0.07 94 1011.0
20180620072528 67 355 9.0 14.0 0.06 0.34 0.07 94 1010.9
20180620072031 67 360 8.0 14.0 0.06 0.34 0.07 93 1010.9
20180620071531 67 347 9.0 14.0 0.07 0.34 0.07 93 1011.4
20180620071032 67 344 9.0 13.0 0.07 0.34 0.07 93 1011.8
20180620070515 67 340 6.0 12.0 0.06 0.33 0.06 93 1012.0
20180620070017 67 333 7.0 12.0 0.06 0.33 0.06 94 1012.1
20180620065517 67 339 9.0 12.0 0.06 0.33 0.06 95 1011.9
20180620065022 67 299 2.0 7.0 0.05 0.32 0.05 94 1013.3
20180620064523 67 205 2.0 9.0 0.04 0.31 0.04 94 1013.8
20180620064027 67 201 5.0 9.0 0.03 0.30 0.03 94 1014.0
20180620063530 67 205 3.0 5.0 0.03 0.30 0.03 93 1013.9
20180620063032 68 184 3.0 7.0 0.02 0.29 0.02 93 1014.2
20180620062531 68 198 4.0 6.0 0.01 0.28 0.01 92 1014.0
20180620062032 68 268 2.0 4.0 0.01 0.28 0.01 92 1013.8
20180620061532 68 269 2.0 3.0 0.00 0.27 0.00 92 1013.8
20180620061033 68 269 0.0 3.0 0.00 0.27 0.00 93 1013.7
20180620060514 67 269 1.0 2.0 0.00 0.27 0.00 93 1013.4
20180620060015 67 269 1.0 3.0 0.00 0.27 0.00 94 1013.3
20180620055518 67 269 2.0 3.0 0.00 0.27 0.00 94 1013.0
20180620055019 67 269 1.0 2.0 0.00 0.27 0.00 94 1013.1
20180620054521 67 269 0.0 0.0 0.00 0.27 0.00 94 1012.8
20180620054023 67 269 0.0 1.0 0.00 0.27 0.00 93 1012.8
20180620053524 67 269 0.0 1.0 0.00 0.27 0.00 93 1012.6
20180620053024 67 269 0.0 4.0 0.00 0.27 0.00 93 1012.4
20180620052527 67 269 2.0 6.0 0.00 0.27 0.00 92 1012.1
20180620052029 67 270 3.0 6.0 0.00 0.27 0.00 93 1011.9
20180620051530 67 274 2.0 4.0 0.00 0.27 0.00 93 1012.0
20180620051033 67 241 3.0 5.0 0.00 0.27 0.00 92 1012.2
20180620050513 68 336 2.0 5.0 0.01 0.27 0.00 92 1012.1
20180620050014 67 322 3.0 5.0 0.01 0.27 0.00 92 1012.1
20180620045517 67 355 4.0 5.0 0.01 0.56 0.27 92 1012.5
20180620045018 68 360 2.0 6.0 0.01 0.56 0.27 92 1012.7
20180620044521 68 355 4.0 8.0 0.03 0.56 0.27 92 1013.0
20180620044023 68 302 1.0 8.0 0.05 0.56 0.27 90 1012.9
20180620043526 68 325 2.0 10.0 0.06 0.56 0.27 90 1012.8
20180620043027 68 294 5.0 11.0 0.07 0.56 0.27 91 1012.6
20180620042528 68 276 6.0 13.0 0.08 0.56 0.27 90 1012.7
20180620042028 68 287 8.0 13.0 0.08 0.56 0.27 90 1012.9
20180620041529 68 266 6.0 10.0 0.08 0.56 0.27 90 1012.9
20180620041032 68 248 5.0 10.0 0.08 0.56 0.27 91 1013.0
20180620040514 67 314 5.0 10.0 0.07 0.55 0.26 92 1013.2
20180620040014 68 336 6.0 10.0 0.07 0.55 0.26 92 1013.2
20180620035529 68 324 5.0 9.0 0.07 0.55 0.26 91 1013.5
20180620035031 68 281 3.0 12.0 0.07 0.55 0.26 91 1013.6
20180620034531 68 292 6.0 15.0 0.05 0.53 0.24 90 1013.6
20180620034013 68 302 5.0 21.0 0.03 0.51 0.22 90 1013.6
20180620033514 69 300 13.0 21.0 0.02 0.50 0.21 89 1013.5
20180620033016 70 308 13.0 20.0 0.01 0.49 0.20 89 1013.6
20180620032519 71 306 12.0 19.0 0.00 0.48 0.19 89 1013.7
20180620032021 72 269 12.0 30.0 0.00 0.48 0.19 87 1013.9
20180620031525 73 278 14.0 26.0 0.00 0.48 0.19 86 1013.8
20180620031025 75 260 7.0 13.0 0.00 0.48 0.19 92 1013.7
20180620030527 75 256 2.0 7.0 0.00 0.48 0.19 92 1013.5
20180620030028 76 275 3.0 6.0 0.00 0.48 0.19 91 1013.2
20180620025530 76 302 3.0 8.0 0.00 0.48 0.19 91 1013.2
20180620025031 76 304 2.0 8.0 0.00 0.48 0.19 91 1013.0
20180620024514 76 292 5.0 8.0 0.00 0.48 0.19 91 1012.8
20180620024015 76 298 3.0 8.0 0.00 0.48 0.19 91 1012.5
20180620023517 76 332 6.0 8.0 0.01 0.48 0.19 91 1012.3
20180620023019 76 11 3.0 12.0 0.01 0.48 0.19 91 1012.0
20180620022521 76 15 5.0 13.0 0.01 0.48 0.19 90 1011.9
20180620022023 76 355 9.0 13.0 0.01 0.48 0.19 90 1011.9
20180620021525 76 314 6.0 13.0 0.01 0.48 0.19 91 1011.7
20180620021023 75 313 8.0 13.0 0.01 0.48 0.19 93 1011.6
20180620020525 75 297 8.0 12.0 0.01 0.48 0.19 93 1011.3
20180620020027 75 288 5.0 8.0 0.01 0.48 0.19 93 1011.1
20180620015527 76 288 4.0 8.0 0.01 0.48 0.19 93 1011.0
20180620015029 76 261 3.0 8.0 0.01 0.48 0.19 93 1010.7
20180620014532 75 341 1.0 6.0 0.01 0.48 0.19 93 1010.4
20180620014014 76 12 4.0 6.0 0.01 0.48 0.19 93 1010.3
20180620013516 76 39 4.0 6.0 0.01 0.47 0.18 92 1010.1
20180620013018 76 12 4.0 7.0 0.01 0.47 0.18 93 1010.3
20180620012519 75 28 2.0 4.0 0.01 0.47 0.18 93 1010.3
20180620012021 76 96 0.0 4.0 0.01 0.47 0.18 93 1010.4
20180620011522 75 96 2.0 5.0 0.01 0.47 0.18 93 1010.1
20180620011024 75 40 2.0 5.0 0.01 0.47 0.18 93 1010.4
20180620010532 76 53 2.0 4.0 0.01 0.47 0.18 92 1010.8
20180620010014 76 355 2.0 4.0 0.01 0.47 0.18 91 1011.3
20180620005515 76 355 3.0 4.0 0.01 0.47 0.18 91 1011.6
20180620005018 76 30 2.0 4.0 0.01 0.47 0.18 91 1011.7
20180620004520 76 54 1.0 4.0 0.01 0.47 0.18 91 1011.6
20180620004022 76 18 1.0 3.0 0.01 0.47 0.18 91 1011.7
20180620003524 76 11 1.0 4.0 0.00 0.46 0.17 90 1011.7
20180620003025 76 11 2.0 5.0 0.00 0.46 0.17 89 1011.7
20180620002526 77 36 3.0 5.0 0.00 0.46 0.17 89 1011.5
20180620002030 77 12 3.0 8.0 0.00 0.46 0.17 88 1011.5
20180620001513 77 350 4.0 8.0 0.00 0.46 0.17 87 1011.4
20180620001013 77 10 4.0 9.0 0.00 0.46 0.17 87 1011.4
20180620000516 77 23 4.0 11.0 0.00 0.46 0.17 87 1011.4
20180620000018 77 28 6.0 11.0 0.00 0.46 0.17 87 1011.4
20180619235521 77 66 4.0 11.0 0.00 0.47 0.17 87 1011.3
20180619235021 77 49 4.0 10.0 0.00 0.47 0.17 87 1011.1
20180619234521 77 55 7.0 12.0 0.00 0.47 0.17 87 1011.3
20180619234025 77 22 4.0 12.0 0.00 0.47 0.17 87 1011.4
20180619233527 77 24 7.0 12.0 0.00 0.47 0.17 87 1011.5
20180619233027 78 355 7.0 11.0 0.00 0.47 0.17 86 1011.6
20180619232529 78 22 5.0 11.0 0.00 0.47 0.17 86 1011.7
20180619232031 78 18 6.0 12.0 0.00 0.47 0.17 86 1011.5
20180619231532 78 19 7.0 12.0 0.00 0.47 0.17 86 1011.5
20180619231015 78 17 5.0 12.0 0.00 0.47 0.17 86 1011.6
20180619230514 78 20 9.0 13.0 0.00 0.47 0.17 86 1011.6
20180619230014 79 59 5.0 9.0 0.00 0.47 0.17 86 1011.5
20180619225517 79 36 4.0 10.0 0.00 0.47 0.17 85 1011.7
20180619225018 79 27 7.0 11.0 0.00 0.47 0.17 85 1011.9
20180619224518 79 360 7.0 10.0 0.00 0.47 0.17 85 1012.0
20180619224021 79 13 4.0 8.0 0.00 0.47 0.17 85 1012.0
20180619223521 79 11 4.0 8.0 0.00 0.47 0.17 86 1011.9
20180619223024 80 13 3.0 8.0 0.00 0.47 0.17 85 1011.9
20180619222526 80 355 5.0 8.0 0.00 0.47 0.17 85 1012.0
20180619222027 80 360 4.0 8.0 0.00 0.47 0.17 84 1011.9
20180619221528 81 5 5.0 8.0 0.00 0.47 0.17 83 1011.9
20180619221030 81 11 3.0 8.0 0.00 0.47 0.17 83 1011.8
20180619220533 81 355 3.0 6.0 0.00 0.47 0.17 82 1011.8
20180619220013 82 350 2.0 8.0 0.00 0.47 0.17 82 1011.8
20180619215516 82 22 4.0 8.0 0.00 0.47 0.17 82 1011.9
20180619215019 81 346 3.0 5.0 0.00 0.47 0.17 83 1012.0
20180619214520 81 350 3.0 4.0 0.00 0.47 0.17 84 1012.2
20180619214021 81 273 2.0 4.0 0.00 0.47 0.17 84 1012.3
20180619213522 81 263 1.0 4.0 0.00 0.47 0.17 85 1012.3
20180619213025 81 263 2.0 4.0 0.00 0.47 0.17 83 1012.4